createdAt,value
2023-05-05T00:02:41.836Z,18.70
2023-05-05T00:07:45.938Z,18.60
2023-05-05T00:12:50.445Z,18.60
2023-05-05T00:17:56.208Z,18.50
2023-05-05T00:23:00.240Z,18.50
2023-05-05T00:28:04.314Z,18.40
2023-05-05T00:33:09.746Z,18.30
2023-05-05T00:38:14.113Z,18.30
2023-05-05T00:43:19.032Z,18.20
2023-05-05T00:48:25.714Z,18.20
2023-05-05T00:53:30.978Z,18.20
2023-05-05T00:58:35.779Z,18.10
2023-05-05T01:03:42.423Z,18.10
2023-05-05T01:09:01.754Z,18.10
2023-05-05T01:14:15.917Z,18.00
2023-05-05T01:19:52.173Z,18.00
2023-05-05T01:25:22.335Z,18.00
2023-05-05T01:31:03.228Z,17.90
2023-05-05T01:36:13.780Z,17.90
2023-05-05T01:41:24.214Z,17.80
2023-05-05T01:46:29.289Z,17.70
2023-05-05T01:51:35.574Z,17.70
2023-05-05T01:56:42.770Z,17.60
2023-05-05T02:01:48.726Z,17.50
2023-05-05T02:06:55.651Z,17.40
2023-05-05T02:12:00.800Z,17.30
2023-05-05T02:17:05.604Z,17.20
2023-05-05T02:22:12.340Z,17.20
2023-05-05T02:27:19.361Z,17.10
2023-05-05T02:32:29.494Z,17.00
2023-05-05T02:37:37.144Z,17.00
2023-05-05T02:42:44.557Z,16.90
2023-05-05T02:47:50.009Z,16.80
2023-05-05T02:52:55.793Z,16.80
2023-05-05T02:58:09.700Z,16.70
2023-05-05T03:03:26.355Z,16.60
2023-05-05T03:08:42.196Z,16.60
2023-05-05T03:13:48.759Z,16.50
2023-05-05T03:18:59.501Z,16.40
2023-05-05T03:24:16.171Z,16.40
2023-05-05T03:29:23.588Z,16.30
2023-05-05T03:34:27.745Z,16.20
2023-05-05T03:39:33.432Z,16.20
2023-05-05T03:44:38.025Z,16.10
2023-05-05T03:49:42.692Z,16.00
2023-05-05T03:54:48.167Z,15.90
2023-05-05T03:59:52.343Z,15.90
2023-05-05T04:04:58.213Z,15.80
2023-05-05T04:10:03.867Z,15.80
2023-05-05T04:15:09.545Z,15.70
2023-05-05T04:20:14.405Z,15.70
2023-05-05T04:25:20.079Z,15.70
2023-05-05T04:30:25.625Z,15.60
2023-05-05T04:35:29.852Z,15.60
2023-05-05T04:40:41.025Z,15.60
2023-05-05T04:45:54.701Z,15.50
2023-05-05T04:51:06.702Z,15.50
2023-05-05T04:56:13.050Z,15.60
2023-05-05T05:01:17.499Z,15.50
2023-05-05T05:06:21.604Z,15.50
2023-05-05T05:11:27.665Z,15.50
2023-05-05T05:16:32.284Z,15.50
2023-05-05T05:21:36.486Z,15.50
2023-05-05T05:26:42.279Z,15.50
2023-05-05T05:31:46.621Z,15.50
2023-05-05T05:36:51.355Z,15.50
2023-05-05T05:41:57.192Z,15.60
2023-05-05T05:47:01.411Z,15.60
2023-05-05T05:52:06.417Z,15.60
2023-05-05T05:57:12.145Z,15.60
2023-05-05T06:02:16.528Z,15.70
2023-05-05T06:07:21.424Z,15.60
2023-05-05T06:12:26.987Z,15.70
2023-05-05T06:17:31.251Z,15.80
2023-05-05T06:22:35.614Z,15.90
2023-05-05T06:27:41.297Z,15.90
2023-05-05T06:32:45.424Z,16.00
2023-05-05T06:37:49.486Z,16.10
2023-05-05T06:42:54.826Z,16.20
2023-05-05T06:48:04.274Z,16.30
2023-05-05T06:53:08.452Z,16.30
2023-05-05T06:58:13.931Z,16.40
2023-05-05T07:03:18.300Z,16.50
2023-05-05T07:08:22.708Z,16.60
2023-05-05T07:13:28.184Z,16.80
2023-05-05T07:18:32.272Z,16.90
2023-05-05T07:23:37.943Z,16.90
2023-05-05T07:28:44.759Z,17.00
2023-05-05T07:33:49.551Z,17.00
2023-05-05T07:38:53.709Z,17.10
2023-05-05T07:43:59.930Z,17.20
2023-05-05T07:49:04.630Z,17.30
2023-05-05T07:54:08.609Z,17.50
2023-05-05T07:59:14.080Z,17.60
2023-05-05T08:04:18.207Z,17.70
2023-05-05T08:09:22.328Z,17.80
2023-05-05T08:14:27.745Z,18.00
2023-05-05T08:19:31.829Z,18.20
2023-05-05T08:24:36.211Z,18.20
2023-05-05T08:29:41.650Z,18.40
2023-05-05T08:34:46.026Z,18.50
2023-05-05T08:39:50.090Z,18.60
2023-05-05T08:44:56.847Z,18.60
2023-05-05T08:50:02.528Z,18.70
2023-05-05T08:55:15.771Z,18.60
2023-05-05T09:00:22.799Z,18.60
2023-05-05T09:05:27.802Z,18.50
2023-05-05T09:10:33.672Z,18.50
2023-05-05T09:15:41.437Z,18.50
2023-05-05T09:20:45.719Z,18.60
2023-05-05T09:26:05.211Z,18.60
2023-05-05T09:31:17.086Z,18.60
2023-05-05T09:36:22.888Z,18.60
2023-05-05T09:41:39.105Z,18.70
2023-05-05T09:46:52.416Z,18.70
2023-05-05T09:51:56.799Z,18.70
2023-05-05T09:57:00.834Z,18.70
2023-05-05T10:02:14.470Z,18.70
2023-05-05T10:07:25.456Z,18.50
2023-05-05T10:12:31.290Z,18.40
2023-05-05T10:17:39.266Z,18.30
2023-05-05T10:22:52.349Z,18.30
2023-05-05T10:28:00.875Z,18.30
2023-05-05T10:33:30.976Z,18.20
2023-05-05T10:38:37.289Z,18.00
2023-05-05T10:43:41.874Z,17.70
2023-05-05T10:48:57.722Z,17.40
2023-05-05T10:54:11.541Z,17.10
2023-05-05T10:59:43.938Z,16.90
2023-05-05T11:05:15.172Z,16.70
2023-05-05T11:10:20.970Z,16.50
2023-05-05T11:15:37.786Z,16.40
2023-05-05T11:21:18.269Z,16.30
2023-05-05T11:26:51.212Z,16.20
2023-05-05T11:32:15.550Z,16.20
2023-05-05T11:37:25.098Z,16.10
2023-05-05T11:42:30.326Z,16.20
2023-05-05T11:47:34.523Z,16.10
2023-05-05T11:52:39.900Z,16.20
2023-05-05T11:57:43.936Z,16.20
2023-05-05T12:02:48.184Z,16.20
2023-05-05T12:07:59.501Z,16.20
2023-05-05T12:13:03.760Z,16.20
2023-05-05T12:18:19.110Z,16.20
2023-05-05T12:23:27.381Z,16.20
2023-05-05T12:28:45.349Z,16.20
2023-05-05T12:33:50.468Z,16.20
2023-05-05T12:38:55.936Z,16.20
2023-05-05T12:44:01.618Z,16.20
2023-05-05T12:49:07.519Z,16.20
2023-05-05T12:54:13.406Z,16.20
2023-05-05T12:59:31.067Z,16.30
2023-05-05T13:04:35.665Z,16.20
2023-05-05T13:09:41.348Z,16.20
2023-05-05T13:14:46.561Z,16.20
2023-05-05T13:19:51.037Z,16.10
2023-05-05T13:24:56.537Z,16.20
2023-05-05T13:30:00.657Z,16.10
2023-05-05T13:35:05.005Z,16.10
2023-05-05T13:40:13.682Z,16.10
2023-05-05T13:45:19.706Z,16.00
2023-05-05T13:50:24.056Z,16.00
2023-05-05T13:55:31.431Z,16.00
2023-05-05T14:00:35.622Z,16.00
2023-05-05T14:05:42.867Z,16.10
2023-05-05T14:10:49.557Z,16.10
2023-05-05T14:15:54.854Z,16.20
2023-05-05T14:20:58.937Z,16.30
2023-05-05T14:26:04.468Z,16.40
2023-05-05T14:31:08.728Z,16.40
2023-05-05T14:36:14.267Z,16.40
2023-05-05T14:41:19.692Z,16.40
2023-05-05T14:46:24.084Z,16.30
2023-05-05T14:51:28.630Z,16.40
2023-05-05T14:56:34.177Z,16.30
2023-05-05T15:01:38.336Z,16.20
2023-05-05T15:06:42.270Z,16.20
2023-05-05T15:11:47.710Z,16.30
2023-05-05T15:16:51.741Z,16.30
2023-05-05T15:21:55.927Z,16.40
2023-05-05T15:27:01.598Z,16.40
2023-05-05T15:32:06.362Z,16.40
2023-05-05T15:37:10.400Z,16.40
2023-05-05T15:42:15.851Z,16.40
2023-05-05T15:47:20.039Z,16.40
2023-05-05T15:52:24.083Z,16.40
2023-05-05T15:57:29.483Z,16.50
2023-05-05T16:02:33.628Z,16.50
2023-05-05T16:07:37.703Z,16.50
2023-05-05T16:12:43.126Z,16.50
2023-05-05T16:17:47.626Z,16.50
2023-05-05T16:22:51.725Z,16.40
2023-05-05T16:27:57.647Z,16.50
2023-05-05T16:33:01.737Z,16.50
2023-05-05T16:38:06.073Z,16.50
2023-05-05T16:43:11.490Z,16.60
2023-05-05T16:48:17.582Z,16.50
2023-05-05T16:53:21.814Z,16.50
2023-05-05T16:58:27.541Z,16.50
2023-05-05T17:03:31.735Z,16.50
2023-05-05T17:08:35.796Z,16.60
2023-05-05T17:13:41.275Z,16.50
2023-05-05T17:18:45.538Z,16.50
2023-05-05T17:23:49.619Z,16.50
2023-05-05T17:28:55.083Z,16.60
2023-05-05T17:33:59.107Z,16.50
2023-05-05T17:39:03.199Z,16.50
2023-05-05T17:44:08.809Z,16.50
2023-05-05T17:49:12.829Z,16.50
2023-05-05T17:54:16.901Z,16.50
2023-05-05T17:59:22.819Z,16.40
2023-05-05T18:04:27.026Z,16.40
2023-05-05T18:09:31.217Z,16.40
2023-05-05T18:14:36.816Z,16.40
2023-05-05T18:19:45.656Z,16.40
2023-05-05T18:24:51.361Z,16.30
2023-05-05T18:29:57.104Z,16.30
2023-05-05T18:35:01.236Z,16.30
2023-05-05T18:40:07.070Z,16.20
2023-05-05T18:45:13.344Z,16.10
2023-05-05T18:50:17.335Z,16.10
2023-05-05T18:55:21.903Z,16.00
2023-05-05T19:00:27.314Z,16.00
2023-05-05T19:05:31.488Z,15.90
2023-05-05T19:10:35.893Z,15.90
2023-05-05T19:15:41.820Z,15.80
2023-05-05T19:20:45.886Z,15.80
2023-05-05T19:25:52.799Z,15.70
2023-05-05T19:30:57.997Z,15.70
2023-05-05T19:36:02.977Z,15.70
2023-05-05T19:41:06.986Z,15.60
2023-05-05T19:46:12.486Z,15.50
2023-05-05T19:51:16.633Z,15.50
2023-05-05T19:56:21.681Z,15.50
2023-05-05T20:01:28.352Z,15.40
2023-05-05T20:06:32.740Z,15.40
2023-05-05T20:11:36.926Z,15.40
2023-05-05T20:16:42.401Z,15.40
2023-05-05T20:21:46.410Z,15.40
2023-05-05T20:26:50.739Z,15.40
2023-05-05T20:31:56.480Z,15.40
2023-05-05T20:37:00.559Z,15.40
2023-05-05T20:42:04.905Z,15.30
2023-05-05T20:47:11.979Z,15.40
2023-05-05T20:52:16.514Z,15.30
2023-05-05T20:57:20.590Z,15.30
2023-05-05T21:02:27.785Z,15.30
2023-05-05T21:07:34.230Z,15.30
2023-05-05T21:12:39.109Z,15.30
2023-05-05T21:17:48.232Z,15.30
2023-05-05T21:22:56.428Z,15.30
2023-05-05T21:28:00.957Z,15.20
2023-05-05T21:33:06.855Z,15.20
2023-05-05T21:38:11.630Z,15.20
2023-05-05T21:43:16.194Z,15.20
2023-05-05T21:48:22.040Z,15.10
2023-05-05T21:53:26.895Z,15.10
2023-05-05T21:58:31.634Z,15.10
2023-05-05T22:03:38.025Z,15.10
2023-05-05T22:08:42.873Z,15.00
2023-05-05T22:13:48.094Z,15.00
2023-05-05T22:18:54.304Z,15.00
2023-05-05T22:23:58.974Z,15.00
2023-05-05T22:29:03.749Z,14.90
2023-05-05T22:34:10.125Z,14.90
2023-05-05T22:39:14.890Z,14.90
2023-05-05T22:44:19.021Z,14.90
2023-05-05T22:49:24.560Z,14.90
2023-05-05T22:54:28.756Z,14.80
2023-05-05T22:59:33.057Z,14.90
2023-05-05T23:04:38.565Z,14.80
2023-05-05T23:09:42.744Z,14.80
2023-05-05T23:14:46.901Z,14.70
2023-05-05T23:19:52.463Z,14.70
2023-05-05T23:24:56.724Z,14.70
2023-05-05T23:30:01.450Z,14.60
2023-05-05T23:35:08.476Z,14.60
2023-05-05T23:40:12.900Z,14.60
2023-05-05T23:45:19.212Z,14.50
2023-05-05T23:50:25.825Z,14.50
2023-05-05T23:55:30.063Z,14.50
